createdAt,value
2017-06-14T00:02:22.283Z,73.60
2017-06-14T00:04:51.222Z,74.00
2017-06-14T00:07:19.471Z,73.80
2017-06-14T00:09:48.397Z,72.80
2017-06-14T00:12:16.565Z,72.80
2017-06-14T00:14:44.782Z,71.80
2017-06-14T00:17:12.934Z,70.80
2017-06-14T00:19:41.090Z,70.10
2017-06-14T00:22:09.286Z,70.10
2017-06-14T00:24:37.456Z,70.20
2017-06-14T00:27:05.615Z,70.30
2017-06-14T00:29:33.856Z,70.60
2017-06-14T00:32:02.014Z,70.50
2017-06-14T00:34:30.185Z,70.20
2017-06-14T00:36:58.381Z,69.80
2017-06-14T00:39:26.549Z,69.90
2017-06-14T00:41:54.709Z,70.30
2017-06-14T00:44:23.688Z,70.20
2017-06-14T00:46:51.846Z,70.20
2017-06-14T00:49:20.061Z,70.20
2017-06-14T00:51:48.266Z,69.90
2017-06-14T00:54:16.445Z,70.30
2017-06-14T00:56:44.610Z,70.00
2017-06-14T00:59:12.822Z,71.10
2017-06-14T01:01:40.988Z,72.00
2017-06-14T01:04:09.181Z,72.00
2017-06-14T01:06:37.346Z,72.30
2017-06-14T01:09:05.497Z,73.20
2017-06-14T01:11:33.803Z,73.30
2017-06-14T01:14:02.025Z,73.30
2017-06-14T01:16:30.369Z,73.10
2017-06-14T01:18:58.549Z,72.60
2017-06-14T01:21:26.727Z,72.50
2017-06-14T01:23:54.918Z,72.90
2017-06-14T01:26:23.074Z,74.00
2017-06-14T01:28:51.251Z,74.50
2017-06-14T01:31:19.481Z,75.60
2017-06-14T01:33:47.655Z,75.60
2017-06-14T01:36:15.827Z,75.60
2017-06-14T01:38:44.020Z,75.30
2017-06-14T01:41:12.162Z,75.30
2017-06-14T01:43:40.302Z,76.30
2017-06-14T01:46:08.511Z,76.70
2017-06-14T01:48:36.673Z,76.90
2017-06-14T01:51:04.854Z,76.90
2017-06-14T01:53:33.061Z,77.10
2017-06-14T01:56:01.234Z,77.10
2017-06-14T01:58:29.402Z,77.20
2017-06-14T02:00:57.642Z,76.80
2017-06-14T02:03:25.814Z,76.60
2017-06-14T02:05:53.978Z,76.80
2017-06-14T02:08:22.170Z,76.80
2017-06-14T02:10:50.324Z,76.60
2017-06-14T02:13:18.514Z,76.70
2017-06-14T02:15:46.676Z,76.50
2017-06-14T02:18:14.850Z,76.40
2017-06-14T02:20:43.040Z,76.30
2017-06-14T02:23:11.188Z,76.30
2017-06-14T02:25:39.349Z,76.20
2017-06-14T02:28:07.538Z,76.20
2017-06-14T02:30:35.868Z,76.00
2017-06-14T02:33:04.031Z,76.20
2017-06-14T02:35:32.268Z,76.20
2017-06-14T02:38:00.418Z,76.30
2017-06-14T02:40:28.590Z,76.70
2017-06-14T02:42:56.786Z,76.80
2017-06-14T02:45:24.945Z,76.80
2017-06-14T02:47:53.102Z,76.70
2017-06-14T02:50:21.298Z,77.20
2017-06-14T02:52:49.458Z,77.60
2017-06-14T02:55:17.644Z,77.50
2017-06-14T02:57:45.842Z,77.10
2017-06-14T03:00:14.762Z,76.90
2017-06-14T03:02:42.927Z,76.90
2017-06-14T03:05:11.189Z,77.40
2017-06-14T03:07:39.350Z,77.60
2017-06-14T03:10:07.531Z,79.10
2017-06-14T03:12:35.876Z,78.20
2017-06-14T03:15:04.073Z,78.10
2017-06-14T03:17:32.270Z,77.90
2017-06-14T03:20:00.453Z,77.70
2017-06-14T03:22:28.642Z,77.70
2017-06-14T03:24:56.841Z,77.90
2017-06-14T03:27:24.987Z,77.80
2017-06-14T03:29:53.186Z,78.20
2017-06-14T03:32:21.346Z,78.50
2017-06-14T03:34:49.510Z,78.90
2017-06-14T03:37:17.713Z,79.30
2017-06-14T03:39:45.861Z,78.90
2017-06-14T03:42:14.030Z,78.60
2017-06-14T03:44:42.238Z,78.50
2017-06-14T03:47:10.404Z,78.90
2017-06-14T03:49:38.582Z,78.90
2017-06-14T03:52:06.785Z,78.90
2017-06-14T03:54:34.946Z,79.30
2017-06-14T03:57:03.137Z,78.90
2017-06-14T03:59:31.309Z,78.20
2017-06-14T04:01:59.481Z,77.80
2017-06-14T04:04:27.678Z,77.70
2017-06-14T04:06:55.842Z,77.50
2017-06-14T04:09:24.020Z,77.50
2017-06-14T04:11:52.215Z,77.30
2017-06-14T04:14:20.385Z,76.60
2017-06-14T04:16:48.543Z,75.40
2017-06-14T04:19:16.746Z,73.80
2017-06-14T04:21:44.916Z,69.80
2017-06-14T04:24:13.078Z,68.30
2017-06-14T04:26:41.282Z,67.50
2017-06-14T04:29:09.427Z,67.20
2017-06-14T04:31:37.587Z,65.60
2017-06-14T04:34:05.781Z,65.30
2017-06-14T04:36:33.957Z,66.00
2017-06-14T04:39:02.141Z,65.30
2017-06-14T04:41:30.345Z,63.60
2017-06-14T04:43:58.554Z,63.00
2017-06-14T04:46:26.720Z,62.50
2017-06-14T04:48:54.908Z,61.90
2017-06-14T04:51:23.062Z,62.40
2017-06-14T04:53:51.214Z,62.70
2017-06-14T04:56:19.412Z,64.00
2017-06-14T04:58:47.582Z,64.60
2017-06-14T05:01:15.737Z,64.10
2017-06-14T05:03:43.968Z,64.50
2017-06-14T05:06:12.129Z,65.00
2017-06-14T05:08:40.345Z,64.70
2017-06-14T05:11:08.504Z,61.90
2017-06-14T05:13:36.670Z,63.00
2017-06-14T05:16:04.893Z,60.90
2017-06-14T05:18:33.054Z,63.10
2017-06-14T05:21:01.348Z,63.40
2017-06-14T05:23:29.605Z,61.50
2017-06-14T05:25:57.794Z,59.30
2017-06-14T05:28:25.940Z,58.80
2017-06-14T05:30:54.141Z,59.40
2017-06-14T05:33:22.316Z,59.80
2017-06-14T05:35:50.458Z,58.70
2017-06-14T05:38:18.675Z,59.20
2017-06-14T05:40:46.866Z,59.40
2017-06-14T05:43:15.162Z,60.10
2017-06-14T05:45:43.366Z,59.70
2017-06-14T05:48:11.569Z,60.30
2017-06-14T05:50:39.734Z,60.60
2017-06-14T05:53:07.921Z,56.50
2017-06-14T05:55:36.121Z,54.70
2017-06-14T05:58:04.319Z,51.60
2017-06-14T06:00:33.318Z,52.20
2017-06-14T06:03:01.478Z,52.20
2017-06-14T06:05:29.634Z,52.90
2017-06-14T06:07:57.842Z,52.60
2017-06-14T06:10:26.117Z,52.40
2017-06-14T06:12:55.042Z,51.60
2017-06-14T06:15:23.225Z,51.60
2017-06-14T06:17:51.398Z,51.60
2017-06-14T06:20:19.564Z,53.30
2017-06-14T06:22:47.770Z,53.60
2017-06-14T06:25:15.947Z,53.70
2017-06-14T06:27:44.242Z,53.10
2017-06-14T06:30:13.169Z,54.60
2017-06-14T06:32:41.369Z,53.80
2017-06-14T06:35:09.560Z,53.40
2017-06-14T06:37:37.719Z,52.70
2017-06-14T06:40:05.865Z,50.60
2017-06-14T06:42:34.044Z,49.60
2017-06-14T06:45:02.211Z,48.50
2017-06-14T06:47:30.495Z,48.60
2017-06-14T06:49:58.649Z,48.40
2017-06-14T06:52:26.850Z,47.70
2017-06-14T06:54:55.042Z,47.50
2017-06-14T06:57:23.219Z,45.30
2017-06-14T06:59:51.366Z,48.00
2017-06-14T07:02:19.586Z,48.10
2017-06-14T07:04:48.550Z,49.00
2017-06-14T07:07:16.716Z,49.00
2017-06-14T07:09:44.926Z,47.30
2017-06-14T07:12:13.085Z,47.70
2017-06-14T07:14:41.215Z,48.10
2017-06-14T07:17:09.431Z,46.90
2017-06-14T07:19:37.599Z,48.70
2017-06-14T07:22:05.780Z,50.10
2017-06-14T07:24:33.976Z,49.30
2017-06-14T07:27:02.219Z,50.30
2017-06-14T07:29:30.447Z,50.40
2017-06-14T07:31:58.618Z,49.60
2017-06-14T07:34:26.799Z,51.10
2017-06-14T07:36:55.087Z,48.80
2017-06-14T07:39:23.241Z,47.60
2017-06-14T07:41:51.401Z,45.60
2017-06-14T07:44:19.602Z,45.00
2017-06-14T07:46:47.772Z,46.10
2017-06-14T07:49:15.938Z,48.10
2017-06-14T07:51:44.142Z,47.50
2017-06-14T07:54:12.306Z,45.90
2017-06-14T07:56:40.470Z,44.90
2017-06-14T07:59:08.655Z,44.80
2017-06-14T08:01:36.823Z,42.80
2017-06-14T08:04:05.014Z,42.20
2017-06-14T08:06:33.178Z,42.50
2017-06-14T08:09:01.351Z,42.00
2017-06-14T08:11:29.565Z,41.10
2017-06-14T08:13:57.736Z,41.70
2017-06-14T08:16:25.881Z,39.90
2017-06-14T08:18:54.106Z,39.50
2017-06-14T08:21:22.331Z,38.90
2017-06-14T08:23:50.537Z,40.40
2017-06-14T08:26:18.737Z,40.60
2017-06-14T08:28:46.905Z,41.40
2017-06-14T08:31:15.067Z,37.80
2017-06-14T08:33:43.282Z,40.30
2017-06-14T08:36:11.479Z,37.30
2017-06-14T08:38:39.641Z,39.90
2017-06-14T08:41:07.824Z,38.40
2017-06-14T08:43:36.017Z,37.20
2017-06-14T08:46:04.312Z,38.50
2017-06-14T08:48:32.486Z,38.20
2017-06-14T08:51:00.646Z,38.20
2017-06-14T08:53:28.833Z,39.50
2017-06-14T08:55:57.009Z,39.40
2017-06-14T08:58:25.214Z,36.90
2017-06-14T09:00:53.390Z,38.00
2017-06-14T09:03:21.555Z,39.90
2017-06-14T09:05:49.769Z,39.60
2017-06-14T09:08:17.938Z,40.80
2017-06-14T09:10:46.111Z,39.20
2017-06-14T09:13:14.303Z,40.00
2017-06-14T09:15:42.467Z,40.00
2017-06-14T09:18:10.679Z,39.70
2017-06-14T09:20:38.854Z,39.00
2017-06-14T09:23:07.065Z,37.90
2017-06-14T09:25:35.229Z,38.60
2017-06-14T09:28:03.458Z,40.90
2017-06-14T09:30:31.602Z,42.60
2017-06-14T09:32:59.814Z,41.00
2017-06-14T09:35:28.021Z,40.60
2017-06-14T09:37:56.210Z,40.60
2017-06-14T09:40:24.389Z,42.00
2017-06-14T09:42:52.628Z,39.10
2017-06-14T09:45:20.809Z,39.50
2017-06-14T09:47:49.009Z,40.30
2017-06-14T09:50:17.230Z,39.60
2017-06-14T09:52:45.394Z,37.80
2017-06-14T09:55:13.578Z,38.70
2017-06-14T09:57:41.754Z,37.60
2017-06-14T10:00:09.922Z,38.80
2017-06-14T10:02:38.095Z,39.20
2017-06-14T10:05:06.299Z,39.30
2017-06-14T10:07:34.497Z,39.10
2017-06-14T10:10:02.646Z,42.30
2017-06-14T10:12:30.870Z,41.90
2017-06-14T10:14:59.026Z,40.40
2017-06-14T10:17:27.215Z,41.40
2017-06-14T10:19:55.410Z,41.80
2017-06-14T10:22:23.629Z,42.50
2017-06-14T10:24:51.802Z,42.70
2017-06-14T10:27:19.982Z,41.10
2017-06-14T10:29:48.172Z,41.20
2017-06-14T10:32:16.402Z,41.50
2017-06-14T10:34:44.567Z,41.10
2017-06-14T10:37:12.938Z,42.10
2017-06-14T10:39:41.077Z,42.80
2017-06-14T10:42:09.639Z,41.60
2017-06-14T10:44:37.790Z,40.30
2017-06-14T10:47:05.955Z,41.10
2017-06-14T10:49:34.278Z,39.30
2017-06-14T10:52:03.361Z,38.10
2017-06-14T10:54:31.576Z,38.10
2017-06-14T10:56:59.779Z,39.80
2017-06-14T10:59:28.056Z,38.50
2017-06-14T11:01:56.287Z,40.30
2017-06-14T11:04:24.452Z,40.30
2017-06-14T11:06:52.793Z,42.60
2017-06-14T11:09:21.021Z,40.20
2017-06-14T11:11:49.179Z,40.30
2017-06-14T11:14:17.374Z,42.50
2017-06-14T11:16:46.444Z,41.40
2017-06-14T11:19:14.642Z,41.80
2017-06-14T11:21:42.798Z,41.00
2017-06-14T11:24:10.981Z,41.30
2017-06-14T11:26:39.167Z,39.70
2017-06-14T11:29:07.365Z,40.00
2017-06-14T11:31:35.602Z,39.80
2017-06-14T11:34:03.801Z,38.80
2017-06-14T11:36:31.996Z,38.80
2017-06-14T11:39:00.291Z,38.50
2017-06-14T11:41:28.570Z,39.90
2017-06-14T11:43:56.749Z,39.40
2017-06-14T11:46:25.693Z,39.40
2017-06-14T11:48:53.873Z,39.40
2017-06-14T11:51:22.083Z,41.30
2017-06-14T11:53:50.254Z,39.40
2017-06-14T11:56:18.422Z,40.90
2017-06-14T11:58:46.603Z,39.20
2017-06-14T12:01:14.801Z,39.60
2017-06-14T12:03:43.006Z,38.20
2017-06-14T12:06:11.178Z,38.40
2017-06-14T12:08:39.362Z,40.00
2017-06-14T12:11:07.563Z,39.10
2017-06-14T12:13:35.901Z,40.60
2017-06-14T12:16:04.064Z,39.40
2017-06-14T12:18:32.265Z,37.30
2017-06-14T12:21:00.434Z,37.50
2017-06-14T12:23:28.604Z,39.10
2017-06-14T12:25:56.809Z,38.90
2017-06-14T12:28:25.747Z,40.40
2017-06-14T12:30:54.158Z,41.00
2017-06-14T12:33:22.318Z,39.20
2017-06-14T12:35:50.502Z,38.00
2017-06-14T12:38:18.677Z,37.90
2017-06-14T12:40:46.855Z,41.90
2017-06-14T12:43:15.076Z,41.30
2017-06-14T12:45:43.250Z,39.20
2017-06-14T12:48:11.401Z,41.00
2017-06-14T12:50:39.590Z,38.40
2017-06-14T12:53:07.778Z,42.20
2017-06-14T12:55:35.976Z,39.70
2017-06-14T12:58:04.156Z,40.80
2017-06-14T13:00:33.481Z,41.00
2017-06-14T13:03:01.678Z,39.00
2017-06-14T13:05:29.863Z,39.90
2017-06-14T13:07:58.019Z,40.70
2017-06-14T13:10:26.374Z,39.50
2017-06-14T13:12:54.578Z,39.60
2017-06-14T13:15:22.755Z,39.00
2017-06-14T13:17:50.972Z,41.30
2017-06-14T13:20:19.150Z,39.90
2017-06-14T13:22:47.318Z,40.20
2017-06-14T13:25:15.561Z,39.10
2017-06-14T13:27:43.778Z,39.90
2017-06-14T13:30:11.968Z,38.70
2017-06-14T13:32:40.186Z,39.10
2017-06-14T13:35:08.355Z,39.70
2017-06-14T13:37:36.563Z,41.90
2017-06-14T13:40:04.726Z,41.00
2017-06-14T13:42:32.899Z,41.40
2017-06-14T13:45:01.108Z,40.40
2017-06-14T13:47:29.312Z,39.40
2017-06-14T13:49:57.514Z,40.40
2017-06-14T13:52:25.696Z,39.70
2017-06-14T13:54:54.054Z,39.50
2017-06-14T13:57:22.234Z,40.70
2017-06-14T13:59:50.390Z,39.80
2017-06-14T14:02:18.618Z,40.30
2017-06-14T14:04:46.766Z,39.10
2017-06-14T14:07:14.951Z,40.10
2017-06-14T14:09:43.286Z,40.50
2017-06-14T14:12:11.424Z,41.10
2017-06-14T14:14:39.649Z,40.20
2017-06-14T14:17:07.834Z,39.90
2017-06-14T14:19:36.024Z,40.40
2017-06-14T14:22:04.205Z,39.80
2017-06-14T14:24:32.477Z,40.70
2017-06-14T14:27:00.666Z,39.20
2017-06-14T14:29:28.839Z,37.90
2017-06-14T14:31:57.251Z,39.90
2017-06-14T14:34:25.446Z,40.30
2017-06-14T14:36:53.618Z,39.50
2017-06-14T14:39:21.810Z,39.30
2017-06-14T14:41:50.023Z,39.80
2017-06-14T14:44:18.191Z,38.40
2017-06-14T14:46:46.353Z,38.70
2017-06-14T14:49:14.562Z,39.60
2017-06-14T14:51:42.737Z,39.70
2017-06-14T14:54:10.906Z,39.40
2017-06-14T14:56:39.110Z,39.30
2017-06-14T14:59:07.372Z,41.00
2017-06-14T15:01:35.517Z,38.60
2017-06-14T15:04:03.718Z,39.30
2017-06-14T15:06:31.923Z,39.10
2017-06-14T15:09:00.090Z,39.10
2017-06-14T15:11:28.266Z,38.70
2017-06-14T15:13:56.524Z,38.70
2017-06-14T15:16:24.667Z,40.10
2017-06-14T15:18:52.974Z,38.20
2017-06-14T15:21:21.192Z,38.10
2017-06-14T15:23:49.352Z,37.80
2017-06-14T15:26:17.514Z,39.10
2017-06-14T15:28:45.690Z,38.10
2017-06-14T15:31:13.898Z,39.60
2017-06-14T15:33:42.086Z,39.10
2017-06-14T15:36:10.239Z,39.30
2017-06-14T15:38:38.620Z,38.70
2017-06-14T15:41:06.782Z,39.40
2017-06-14T15:43:34.984Z,37.70
2017-06-14T15:46:03.178Z,39.00
2017-06-14T15:48:31.715Z,38.50
2017-06-14T15:51:02.203Z,39.60
2017-06-14T15:53:33.619Z,39.60
2017-06-14T15:56:04.732Z,39.10
2017-06-14T15:58:34.182Z,40.00
2017-06-14T16:01:03.855Z,40.30
2017-06-14T16:03:32.058Z,40.10
2017-06-14T16:06:00.245Z,40.30
2017-06-14T16:08:28.991Z,38.70
2017-06-14T16:10:59.062Z,40.00
2017-06-14T16:13:30.797Z,39.60
2017-06-14T16:16:00.323Z,40.70
2017-06-14T16:18:30.698Z,39.00
2017-06-14T16:21:00.251Z,39.50
2017-06-14T16:23:32.385Z,39.80
2017-06-14T16:26:06.247Z,39.40
2017-06-14T16:28:36.044Z,41.00
2017-06-14T16:31:04.235Z,38.90
2017-06-14T16:33:32.423Z,38.40
2017-06-14T16:36:00.822Z,40.30
2017-06-14T16:38:29.001Z,40.00
2017-06-14T16:40:57.275Z,37.80
2017-06-14T16:43:26.345Z,39.80
2017-06-14T16:45:55.344Z,40.90
2017-06-14T16:48:23.515Z,39.40
2017-06-14T16:50:51.709Z,38.00
2017-06-14T16:53:19.995Z,41.10
2017-06-14T16:55:48.902Z,39.30
2017-06-14T16:58:17.344Z,41.30
2017-06-14T17:00:45.597Z,41.30
2017-06-14T17:03:14.071Z,41.10
2017-06-14T17:05:43.118Z,41.60
2017-06-14T17:08:11.338Z,41.70
2017-06-14T17:10:39.537Z,39.70
2017-06-14T17:13:07.774Z,39.80
2017-06-14T17:15:38.177Z,41.30
2017-06-14T17:18:06.333Z,41.10
2017-06-14T17:20:34.937Z,42.90
2017-06-14T17:23:03.921Z,43.20
2017-06-14T17:25:33.931Z,43.40
2017-06-14T17:28:03.824Z,42.00
2017-06-14T17:30:35.100Z,41.10
2017-06-14T17:33:05.875Z,40.30
2017-06-14T17:35:35.546Z,42.60
2017-06-14T17:38:07.302Z,42.30
2017-06-14T17:40:38.936Z,42.80
2017-06-14T17:43:08.858Z,41.80
2017-06-14T17:45:39.893Z,42.60
2017-06-14T17:48:10.194Z,42.60
2017-06-14T17:50:41.673Z,43.30
2017-06-14T17:53:11.618Z,44.40
2017-06-14T17:55:41.672Z,44.30
2017-06-14T17:58:11.387Z,41.90
2017-06-14T18:00:44.243Z,43.20
2017-06-14T18:03:15.824Z,43.30
2017-06-14T18:05:48.519Z,43.90
2017-06-14T18:08:19.016Z,44.60
2017-06-14T18:10:48.116Z,43.20
2017-06-14T18:13:19.098Z,44.90
2017-06-14T18:15:48.965Z,44.60
2017-06-14T18:18:19.192Z,44.50
2017-06-14T18:20:48.572Z,44.90
2017-06-14T18:23:18.904Z,43.70
2017-06-14T18:25:52.456Z,46.50
2017-06-14T18:28:22.878Z,46.50
2017-06-14T18:30:51.431Z,45.80
2017-06-14T18:33:19.619Z,45.40
2017-06-14T18:35:48.051Z,45.80
2017-06-14T18:38:19.139Z,45.90
2017-06-14T18:40:51.908Z,46.30
2017-06-14T18:43:21.728Z,46.20
2017-06-14T18:45:52.142Z,46.60
2017-06-14T18:48:22.734Z,47.60
2017-06-14T18:50:56.637Z,47.10
2017-06-14T18:53:31.076Z,47.30
2017-06-14T18:56:01.466Z,48.30
2017-06-14T18:58:34.265Z,48.40
2017-06-14T19:01:06.211Z,48.40
2017-06-14T19:03:39.857Z,48.70
2017-06-14T19:06:10.118Z,49.40
2017-06-14T19:08:40.940Z,49.10
2017-06-14T19:11:12.341Z,49.10
2017-06-14T19:13:40.525Z,49.50
2017-06-14T19:16:08.778Z,49.60
2017-06-14T19:18:39.528Z,50.40
2017-06-14T19:21:13.838Z,50.10
2017-06-14T19:23:42.876Z,51.60
2017-06-14T19:26:14.065Z,51.00
2017-06-14T19:28:47.000Z,52.70
2017-06-14T19:31:26.779Z,52.70
2017-06-14T19:33:55.008Z,53.10
2017-06-14T19:36:43.452Z,53.30
2017-06-14T19:39:11.815Z,54.10
2017-06-14T19:41:40.179Z,54.40
2017-06-14T19:44:09.279Z,55.60
2017-06-14T19:46:37.827Z,55.70
2017-06-14T19:49:07.459Z,56.10
2017-06-14T19:51:36.706Z,54.90
2017-06-14T19:54:05.017Z,54.70
2017-06-14T19:56:33.592Z,54.90
2017-06-14T19:59:01.811Z,54.70
2017-06-14T20:01:30.856Z,55.50
2017-06-14T20:03:59.144Z,55.50
2017-06-14T20:06:29.595Z,55.80
2017-06-14T20:08:57.869Z,55.80
2017-06-14T20:11:27.635Z,55.80
2017-06-14T20:13:56.586Z,55.80
2017-06-14T20:16:24.813Z,55.70
2017-06-14T20:18:54.186Z,55.90
2017-06-14T20:21:25.662Z,56.40
2017-06-14T20:23:53.821Z,56.50
2017-06-14T20:26:28.771Z,56.60
2017-06-14T20:28:57.726Z,56.80
2017-06-14T20:31:28.087Z,57.20
2017-06-14T20:33:58.276Z,57.60
2017-06-14T20:36:29.601Z,57.60
2017-06-14T20:38:58.043Z,57.50
2017-06-14T20:41:26.253Z,57.40
2017-06-14T20:43:55.510Z,57.40
2017-06-14T20:46:23.799Z,57.80
2017-06-14T20:48:52.921Z,57.50
2017-06-14T20:51:21.119Z,57.50
2017-06-14T20:53:49.485Z,58.00
2017-06-14T20:56:17.785Z,57.90
2017-06-14T20:58:45.988Z,57.50
2017-06-14T21:01:15.093Z,57.40
2017-06-14T21:03:46.077Z,57.90
2017-06-14T21:06:15.341Z,57.30
2017-06-14T21:08:43.511Z,57.80
2017-06-14T21:11:12.249Z,58.10
2017-06-14T21:13:40.718Z,58.50
2017-06-14T21:16:08.983Z,59.20
2017-06-14T21:18:38.174Z,59.80
2017-06-14T21:21:06.564Z,60.50
2017-06-14T21:23:35.815Z,60.30
2017-06-14T21:26:04.957Z,60.60
2017-06-14T21:28:35.112Z,60.60
2017-06-14T21:31:04.472Z,60.80
2017-06-14T21:33:33.885Z,61.00
2017-06-14T21:36:02.286Z,62.10
2017-06-14T21:38:31.868Z,62.80
2017-06-14T21:41:03.146Z,62.80
2017-06-14T21:43:33.779Z,62.80
2017-06-14T21:46:02.204Z,63.00
2017-06-14T21:48:31.392Z,63.50
2017-06-14T21:50:59.583Z,63.30
2017-06-14T21:53:28.177Z,62.60
2017-06-14T21:55:57.255Z,62.50
2017-06-14T21:58:25.401Z,62.20
2017-06-14T22:00:53.627Z,62.30
2017-06-14T22:03:21.827Z,62.90
2017-06-14T22:05:50.013Z,63.70
2017-06-14T22:08:18.386Z,65.00
2017-06-14T22:10:46.700Z,65.60
2017-06-14T22:13:15.963Z,66.20
2017-06-14T22:15:44.222Z,66.60
2017-06-14T22:18:12.420Z,66.40
2017-06-14T22:20:40.603Z,66.60
2017-06-14T22:23:08.878Z,66.70
2017-06-14T22:25:37.182Z,66.80
2017-06-14T22:28:05.360Z,67.10
2017-06-14T22:30:33.531Z,68.10
2017-06-14T22:33:01.725Z,67.50
2017-06-14T22:35:29.885Z,68.70
2017-06-14T22:37:58.160Z,67.80
2017-06-14T22:40:26.343Z,67.70
2017-06-14T22:42:54.563Z,68.20
2017-06-14T22:45:23.523Z,68.50
2017-06-14T22:47:51.740Z,68.40
2017-06-14T22:50:20.015Z,68.60
2017-06-14T22:52:48.199Z,68.90
2017-06-14T22:55:16.756Z,68.50
2017-06-14T22:57:45.781Z,68.80
2017-06-14T23:00:13.954Z,68.70
2017-06-14T23:02:42.150Z,68.70
2017-06-14T23:05:10.309Z,68.70
2017-06-14T23:07:38.469Z,68.80
2017-06-14T23:10:06.664Z,68.20
2017-06-14T23:12:35.706Z,68.00
2017-06-14T23:15:03.837Z,66.70
2017-06-14T23:17:32.058Z,65.70
2017-06-14T23:20:00.979Z,64.60
2017-06-14T23:22:29.284Z,64.60
2017-06-14T23:24:57.525Z,64.50
2017-06-14T23:27:25.712Z,64.60
2017-06-14T23:29:53.882Z,64.60
2017-06-14T23:32:22.104Z,66.20
2017-06-14T23:34:50.304Z,67.30
2017-06-14T23:37:19.350Z,68.90
2017-06-14T23:39:47.500Z,68.80
2017-06-14T23:42:15.673Z,69.30
2017-06-14T23:44:43.860Z,70.00
2017-06-14T23:47:12.012Z,69.60
2017-06-14T23:49:40.161Z,68.90
2017-06-14T23:52:08.352Z,68.00
2017-06-14T23:54:36.499Z,67.70
2017-06-14T23:57:04.670Z,67.60
2017-06-14T23:59:32.990Z,67.50
